Time;durP1;ratioP1;P1;durP2;ratioP2;P2;SDS_P1;SDS_P2;PMS_P1;PMS_P2;Temp;Humidity;BMP_temperature;BMP_pressure;BME280_temperature;BME280_humidity;BME280_pressure;Samples;Min_cycle;Max_cycle;Signal;HPM_P1;HPM_P2
2023/12/15 00:02:03;;;;;;;;;;;;;;;25.76;35.14;95135.28;5053968;28;6968;-62
2023/12/15 00:04:41;;;;;;;;;;;;;;;25.74;35.03;95143.31;5067404;28;7299;-62
2023/12/15 00:07:11;;;;;;;;;;;;;;;25.76;35.06;95146.31;5051827;28;9176;-62
2023/12/15 00:09:37;;;;;;;;;;;;;;;25.74;34.92;95146.06;5056762;28;7513;-62
2023/12/15 00:12:04;;;;;;;;;;;;;;;25.76;34.38;95154.59;5047498;28;7110;-62
2023/12/15 00:14:32;;;;;;;;;;;;;;;25.74;35.11;95159.06;5050294;28;7201;-62
2023/12/15 00:16:59;;;;;;;;;;;;;;;25.78;34.50;95168.63;5053187;28;7211;-61
2023/12/15 00:19:26;;;;;;;;;;;;;;;25.78;34.64;95176.88;5068495;28;7211;-62
2023/12/15 00:22:00;;;;;;;;;;;;;;;25.78;34.66;95176.13;5064803;28;7292;-62
2023/12/15 00:24:27;;;;;;;;;;;;;;;25.76;34.67;95173.88;5059124;28;7189;-62
2023/12/15 00:26:58;;;;;;;;;;;;;;;25.76;34.48;95176.63;5060367;28;7137;-62
2023/12/15 00:29:30;;;;;;;;;;;;;;;25.77;35.16;95189.19;5058174;28;9104;-62
2023/12/15 00:32:04;;;;;;;;;;;;;;;25.80;35.33;95184.66;5054967;28;8473;-62
2023/12/15 00:34:30;;;;;;;;;;;;;;;25.78;35.19;95182.41;5061436;28;7021;-63
2023/12/15 00:37:34;;;;;;;;;;;;;;;25.78;35.49;95193.41;5055329;28;7050;-62
2023/12/15 00:40:01;;;;;;;;;;;;;;;25.76;34.67;95193.16;5065712;28;6990;-62
2023/12/15 00:42:33;;;;;;;;;;;;;;;25.73;34.85;95194.13;5047096;28;7206;-62
2023/12/15 00:45:06;;;;;;;;;;;;;;;25.71;35.04;95191.13;5059156;28;7227;-62
2023/12/15 00:47:33;;;;;;;;;;;;;;;25.72;35.69;95198.16;5061115;28;7342;-62
2023/12/15 00:50:05;;;;;;;;;;;;;;;25.70;35.54;95203.41;5059703;28;9348;-62
2023/12/15 00:52:33;;;;;;;;;;;;;;;25.74;35.51;95208.69;5048149;28;7800;-62
2023/12/15 00:55:02;;;;;;;;;;;;;;;25.75;35.65;95208.19;5076102;28;9303;-62
2023/12/15 00:57:31;;;;;;;;;;;;;;;25.75;35.67;95221.94;5046222;28;9132;-62
2023/12/15 00:59:57;;;;;;;;;;;;;;;25.76;35.02;95212.44;5072683;28;7225;-62
2023/12/15 01:02:25;;;;;;;;;;;;;;;25.76;35.76;95219.97;5055056;28;7383;-62
2023/12/15 01:04:51;;;;;;;;;;;;;;;25.76;35.67;95233.72;5060949;28;6967;-62
2023/12/15 01:07:17;;;;;;;;;;;;;;;25.78;35.71;95243.03;5065548;28;7041;-62
2023/12/15 01:09:44;;;;;;;;;;;;;;;25.79;35.18;95241.78;5068905;28;8898;-62
2023/12/15 01:12:12;;;;;;;;;;;;;;;25.77;35.03;95247.03;5061386;28;7608;-61
2023/12/15 01:14:39;;;;;;;;;;;;;;;25.72;35.37;95247.75;5043290;28;8113;-62
2023/12/15 01:17:08;;;;;;;;;;;;;;;25.76;35.98;95262.06;5053547;28;7118;-61
2023/12/15 01:19:35;;;;;;;;;;;;;;;25.75;35.26;95271.56;5064236;28;10264;-62
2023/12/15 01:22:03;;;;;;;;;;;;;;;25.74;36.03;95264.53;5072641;28;7739;-61
2023/12/15 01:24:41;;;;;;;;;;;;;;;25.75;35.61;95270.81;5053264;28;7242;-61
2023/12/15 01:27:07;;;;;;;;;;;;;;;25.77;35.79;95280.13;5072258;28;7196;-61
2023/12/15 01:29:47;;;;;;;;;;;;;;;25.77;36.19;95277.34;5061484;28;7194;-61
2023/12/15 01:32:13;;;;;;;;;;;;;;;25.77;36.14;95280.13;5061908;28;7269;-61
2023/12/15 01:34:49;;;;;;;;;;;;;;;25.76;35.70;95286.84;5064125;28;7186;-61
2023/12/15 01:37:15;;;;;;;;;;;;;;;25.78;36.12;95298.13;5037156;28;9242;-61
2023/12/15 01:39:42;;;;;;;;;;;;;;;25.79;35.59;95299.66;5070043;28;9467;-61
2023/12/15 01:42:10;;;;;;;;;;;;;;;25.79;35.55;95302.41;5067717;28;7087;-61
2023/12/15 01:44:45;;;;;;;;;;;;;;;25.76;36.15;95300.63;5046756;28;6982;-61
2023/12/15 01:47:17;;;;;;;;;;;;;;;25.78;35.99;95319.44;5058320;28;7054;-61
2023/12/15 01:49:47;;;;;;;;;;;;;;;25.77;35.98;95320.69;5043402;28;7142;-61
2023/12/15 01:52:13;;;;;;;;;;;;;;;25.74;36.10;95319.66;5060723;28;7165;-61
2023/12/15 01:54:39;;;;;;;;;;;;;;;25.72;35.56;95316.63;5041701;28;7231;-61
2023/12/15 01:57:10;;;;;;;;;;;;;;;25.77;36.33;95324.19;5052085;28;7075;-61
2023/12/15 01:59:51;;;;;;;;;;;;;;;25.78;35.91;95335.97;5062872;28;8746;-61
2023/12/15 02:02:18;;;;;;;;;;;;;;;25.75;35.82;95334.94;5046612;28;7215;-61
2023/12/15 02:04:57;;;;;;;;;;;;;;;25.77;36.05;95337.97;5059880;28;9286;-61
2023/12/15 02:07:23;;;;;;;;;;;;;;;25.77;35.49;95343.50;5052648;28;7414;-62
2023/12/15 02:09:59;;;;;;;;;;;;;;;25.77;35.77;95343.50;5052736;28;9132;-62
2023/12/15 02:12:27;;;;;;;;;;;;;;;25.75;36.40;95348.72;5054325;28;9466;-62
2023/12/15 02:14:53;;;;;;;;;;;;;;;25.73;35.63;95350.47;5049883;28;7256;-62
2023/12/15 02:17:55;;;;;;;;;;;;;;;25.75;35.82;95353.50;5047091;28;9129;-62
2023/12/15 02:20:23;;;;;;;;;;;;;;;25.72;35.64;95357.97;4991089;28;8758;-62
2023/12/15 02:23:24;;;;;;;;;;;;;;;25.76;36.46;95369.53;4979661;28;7349;-63
2023/12/15 02:26:03;;;;;;;;;;;;;;;25.77;36.39;95368.28;4944960;28;7516;-62
2023/12/15 02:28:31;;;;;;;;;;;;;;;25.76;36.53;95371.53;4936766;28;9442;-63
2023/12/15 02:31:07;;;;;;;;;;;;;;;25.76;36.34;95377.03;4933046;28;9119;-63
2023/12/15 02:33:33;;;;;;;;;;;;;;;25.77;35.97;95384.06;4944820;28;9235;-63
2023/12/15 02:36:21;;;;;;;;;;;;;;;25.76;36.24;95388.81;4948838;28;7377;-63
2023/12/15 02:38:50;;;;;;;;;;;;;;;25.76;35.65;95394.31;4944532;28;7721;-62
2023/12/15 02:41:17;;;;;;;;;;;;;;;25.76;35.80;95399.84;4936998;28;8865;-63
2023/12/15 02:43:46;;;;;;;;;;;;;;;25.77;36.53;95395.84;4951356;28;7223;-63
2023/12/15 02:46:13;;;;;;;;;;;;;;;25.76;35.90;95401.81;4942718;28;8593;-63
2023/12/15 02:49:13;;;;;;;;;;;;;;;25.76;36.28;95405.34;4949792;28;7062;-63
2023/12/15 02:51:42;;;;;;;;;;;;;;;25.74;35.99;95399.56;4858513;29;9134;-63
2023/12/15 02:54:12;;;;;;;;;;;;;;;25.74;36.40;95407.84;4868663;29;7517;-63
2023/12/15 02:56:57;;;;;;;;;;;;;;;25.76;35.91;95410.84;4892786;29;7138;-62
2023/12/15 02:59:33;;;;;;;;;;;;;;;25.77;36.45;95411.63;4902008;29;7306;-63
2023/12/15 03:02:01;;;;;;;;;;;;;;;25.76;36.05;95413.63;4976627;28;7180;-63
2023/12/15 03:04:32;;;;;;;;;;;;;;;25.76;36.52;95416.38;4959033;28;7205;-63
2023/12/15 03:07:07;;;;;;;;;;;;;;;25.76;36.44;95421.13;4953714;28;7249;-64
2023/12/15 03:09:42;;;;;;;;;;;;;;;25.76;35.94;95426.63;4974447;28;9272;-62
2023/12/15 03:12:30;;;;;;;;;;;;;;;25.79;36.02;95433.94;4966352;28;9178;-63
2023/12/15 03:15:07;;;;;;;;;;;;;;;25.76;36.31;95432.16;4972156;28;9402;-63
2023/12/15 03:17:33;;;;;;;;;;;;;;;25.78;36.35;95427.66;4959939;28;8754;-62
2023/12/15 03:20:14;;;;;;;;;;;;;;;25.78;36.54;95430.41;4962869;28;7032;-63
2023/12/15 03:22:57;;;;;;;;;;;;;;;25.77;36.23;95437.19;4978801;28;8168;-62
2023/12/15 03:25:36;;;;;;;;;;;;;;;25.77;36.36;95437.19;4956473;28;9271;-57
2023/12/15 03:28:12;;;;;;;;;;;;;;;25.76;36.65;95445.91;5041968;28;7779;-66
2023/12/15 03:30:38;;;;;;;;;;;;;;;25.76;36.45;95448.69;5059335;28;7250;-66
2023/12/15 03:33:04;;;;;;;;;;;;;;;25.78;36.76;95459.97;5057065;28;9053;-65
2023/12/15 03:35:31;;;;;;;;;;;;;;;25.80;36.70;95455.50;5049316;28;7383;-66
2023/12/15 03:37:59;;;;;;;;;;;;;;;25.75;36.48;95452.69;5066847;28;7271;-66
2023/12/15 03:40:25;;;;;;;;;;;;;;;25.78;35.87;95463.47;5055939;28;7238;-66
2023/12/15 03:42:51;;;;;;;;;;;;;;;25.78;36.08;95459.97;5067876;28;7099;-66
2023/12/15 03:45:19;;;;;;;;;;;;;;;25.78;36.32;95463.47;5044484;28;9465;-66
2023/12/15 03:47:46;;;;;;;;;;;;;;;25.76;36.42;95463.22;5049220;28;7267;-66
2023/12/15 03:50:13;;;;;;;;;;;;;;;25.78;36.71;95471.75;5065099;28;7303;-66
2023/12/15 03:52:39;;;;;;;;;;;;;;;25.76;36.52;95474.25;5054652;28;7186;-66
2023/12/15 03:55:05;;;;;;;;;;;;;;;25.78;36.55;95479.25;5052241;28;7052;-66
2023/12/15 03:57:31;;;;;;;;;;;;;;;25.76;36.56;95473.47;5030003;28;7265;-66
2023/12/15 04:00:02;;;;;;;;;;;;;;;25.77;36.01;95483.28;5049424;28;7192;-66
2023/12/15 04:02:28;;;;;;;;;;;;;;;25.78;36.56;95490.28;5070262;28;9531;-66
2023/12/15 04:04:56;;;;;;;;;;;;;;;25.77;36.39;95488.78;5062531;28;7188;-66
2023/12/15 04:07:24;;;;;;;;;;;;;;;25.75;35.88;95486.50;5039154;28;7002;-66
2023/12/15 04:09:58;;;;;;;;;;;;;;;25.77;36.11;95488.78;5054401;28;9132;-66
2023/12/15 04:12:38;;;;;;;;;;;;;;;25.77;36.83;95492.31;5069508;28;9050;-66
2023/12/15 04:15:12;;;;;;;;;;;;;;;25.79;36.24;95494.56;5065901;28;6960;-66
2023/12/15 04:17:39;;;;;;;;;;;;;;;25.76;36.46;95495.53;5055093;28;7005;-66
2023/12/15 04:20:15;;;;;;;;;;;;;;;25.78;36.40;95499.31;5057126;28;9636;-66
2023/12/15 04:22:42;;;;;;;;;;;;;;;25.79;36.50;95492.56;5047873;28;7109;-67
2023/12/15 04:25:17;;;;;;;;;;;;;;;25.79;36.34;95491.81;5070241;28;7043;-66
2023/12/15 04:27:44;;;;;;;;;;;;;;;25.78;36.02;95496.56;5042352;28;7465;-67
2023/12/15 04:30:13;;;;;;;;;;;;;;;25.80;36.39;95498.81;5055158;28;9290;-66
2023/12/15 04:32:39;;;;;;;;;;;;;;;25.78;36.24;95496.56;5046588;28;9205;-67
2023/12/15 04:35:07;;;;;;;;;;;;;;;25.77;36.46;95489.53;5048071;28;9149;-66
2023/12/15 04:37:44;;;;;;;;;;;;;;;25.78;36.01;95487.53;5057778;28;9514;-57
2023/12/15 04:40:25;;;;;;;;;;;;;;;25.78;36.19;95496.56;5066428;28;7445;-57
2023/12/15 04:42:52;;;;;;;;;;;;;;;25.75;36.45;95494.03;5044932;28;8637;-57
2023/12/15 04:45:46;;;;;;;;;;;;;;;25.78;35.89;95506.81;5066617;28;7227;-56
2023/12/15 04:49:01;;;;;;;;;;;;;;;25.78;36.28;95502.06;5069534;28;7240;-57
2023/12/15 04:51:29;;;;;;;;;;;;;;;25.76;36.69;95499.03;5003914;28;9524;-57
2023/12/15 04:54:04;;;;;;;;;;;;;;;25.74;36.17;95509.78;4993932;28;9229;-56
2023/12/15 04:56:41;;;;;;;;;;;;;;;25.72;36.10;95504.00;4987044;28;8980;-57
2023/12/15 04:59:39;;;;;;;;;;;;;;;25.74;35.97;95509.78;4992431;28;7226;-57
2023/12/15 05:02:06;;;;;;;;;;;;;;;25.75;36.80;95505.78;5003538;28;7081;-57
2023/12/15 05:04:46;;;;;;;;;;;;;;;25.76;36.12;95521.09;5002538;28;7449;-57
2023/12/15 05:07:46;;;;;;;;;;;;;;;25.77;36.83;95519.09;5004933;28;9013;-57
2023/12/15 05:10:33;;;;;;;;;;;;;;;25.77;36.36;95519.84;4927019;29;7026;-57
2023/12/15 05:13:00;;;;;;;;;;;;;;;25.77;35.81;95525.38;4935729;28;7464;-56
2023/12/15 05:15:45;;;;;;;;;;;;;;;25.78;36.46;95523.34;4934735;29;7217;-57
2023/12/15 05:18:43;;;;;;;;;;;;;;;25.76;35.96;95531.34;4934597;28;9039;-56
2023/12/15 05:22:05;;;;;;;;;;;;;;;25.76;35.74;95545.88;4878816;29;7255;-56
2023/12/15 05:24:44;;;;;;;;;;;;;;;25.74;36.29;95537.34;4877941;29;9138;-56
2023/12/15 05:27:36;;;;;;;;;;;;;;;25.74;35.40;95551.13;4886782;29;9174;-57
2023/12/15 05:30:14;;;;;;;;;;;;;;;25.74;35.70;95547.59;4878158;29;7007;-56
2023/12/15 05:32:50;;;;;;;;;;;;;;;25.72;35.50;95550.84;4887285;29;8745;-56
2023/12/15 05:35:33;;;;;;;;;;;;;;;25.76;35.41;95558.91;4878373;29;7281;-56
2023/12/15 05:38:09;;;;;;;;;;;;;;;25.72;35.84;95550.84;4879236;29;9836;-56
2023/12/15 05:40:54;;;;;;;;;;;;;;;25.71;35.41;95562.38;4881900;29;7673;-56
2023/12/15 05:43:21;;;;;;;;;;;;;;;25.71;35.67;95568.63;4869609;29;8390;-56
2023/12/15 05:45:48;;;;;;;;;;;;;;;25.69;35.75;95565.59;4887172;29;7256;-57
2023/12/15 05:48:14;;;;;;;;;;;;;;;25.73;35.99;95566.13;4933722;28;7843;-57
2023/12/15 05:50:43;;;;;;;;;;;;;;;25.75;35.65;95569.16;4932522;28;9049;-56
2023/12/15 05:53:10;;;;;;;;;;;;;;;25.75;36.01;95573.94;4932668;28;9237;-56
2023/12/15 05:55:57;;;;;;;;;;;;;;;25.77;35.79;95582.47;4944451;28;7719;-57
2023/12/15 05:58:25;;;;;;;;;;;;;;;25.76;35.49;95587.22;5010081;28;7267;-57
2023/12/15 06:00:54;;;;;;;;;;;;;;;25.78;36.77;95595.00;5045953;28;7000;-57
2023/12/15 06:03:24;;;;;;;;;;;;;;;25.80;35.97;95596.03;5038658;28;6985;-57
2023/12/15 06:06:11;;;;;;;;;;;;;;;25.76;35.78;95598.25;5065001;28;6997;-57
2023/12/15 06:08:50;;;;;;;;;;;;;;;25.76;36.21;95598.25;5046916;28;7521;-57
2023/12/15 06:11:24;;;;;;;;;;;;;;;25.75;35.57;95605.00;5062665;28;7240;-56
2023/12/15 06:13:51;;;;;;;;;;;;;;;25.74;36.24;95611.75;5069263;28;7845;-57
2023/12/15 06:16:18;;;;;;;;;;;;;;;25.75;35.79;95616.00;5062416;28;7080;-56
2023/12/15 06:18:45;;;;;;;;;;;;;;;25.75;35.59;95618.03;5053520;28;9295;-57
2023/12/15 06:21:31;;;;;;;;;;;;;;;25.74;35.57;95617.28;5072125;28;7142;-57
2023/12/15 06:24:09;;;;;;;;;;;;;;;25.75;36.47;95607.75;5048194;28;7240;-57
2023/12/15 06:26:36;;;;;;;;;;;;;;;25.77;35.90;95624.59;5044999;28;6990;-57
2023/12/15 06:29:16;;;;;;;;;;;;;;;25.78;35.83;95630.81;5066051;28;9086;-57
2023/12/15 06:31:46;;;;;;;;;;;;;;;25.79;35.64;95635.88;5049033;28;8736;-57
2023/12/15 06:34:13;;;;;;;;;;;;;;;25.80;35.78;95642.13;5048134;28;7221;-57
2023/12/15 06:36:40;;;;;;;;;;;;;;;25.79;36.19;95633.13;5061787;28;7248;-56
2023/12/15 06:39:06;;;;;;;;;;;;;;;25.79;35.59;95646.91;5051280;28;8893;-56
2023/12/15 06:41:32;;;;;;;;;;;;;;;25.80;35.64;95648.41;5060661;28;6864;-56
2023/12/15 06:43:58;;;;;;;;;;;;;;;25.75;35.88;95645.59;5046886;28;7093;-57
2023/12/15 06:46:25;;;;;;;;;;;;;;;25.77;35.54;95660.41;5073603;28;9093;-56
2023/12/15 06:48:53;;;;;;;;;;;;;;;25.78;35.51;95658.38;5062268;28;7048;-56
2023/12/15 06:51:20;;;;;;;;;;;;;;;25.75;35.21;95665.63;5044319;28;9089;-56
2023/12/15 06:53:46;;;;;;;;;;;;;;;25.79;35.85;95679.22;5064868;28;9387;-56
2023/12/15 06:56:11;;;;;;;;;;;;;;;25.75;35.29;95678.66;5064890;28;9153;-61
2023/12/15 06:58:37;;;;;;;;;;;;;;;25.77;35.37;95693.47;5059601;28;7246;-61
2023/12/15 07:01:07;;;;;;;;;;;;;;;25.72;36.10;95690.63;5040106;28;9153;-61
2023/12/15 07:03:34;;;;;;;;;;;;;;;25.76;35.29;95702.97;5048845;28;9576;-62
2023/12/15 07:06:03;;;;;;;;;;;;;;;25.79;35.40;95707.53;5064043;28;7489;-61
2023/12/15 07:08:31;;;;;;;;;;;;;;;25.77;35.10;95707.25;5056548;28;9221;-62
2023/12/15 07:10:58;;;;;;;;;;;;;;;25.75;35.45;95712.47;5066734;28;8001;-61
2023/12/15 07:13:24;;;;;;;;;;;;;;;25.75;35.15;95717.97;5054584;28;8953;-61
2023/12/15 07:15:50;;;;;;;;;;;;;;;25.73;34.98;95714.22;5060059;28;9236;-61
2023/12/15 07:18:16;;;;;;;;;;;;;;;25.73;35.20;95720.47;5057175;28;8714;-61
2023/12/15 07:20:42;;;;;;;;;;;;;;;25.74;34.77;95726.72;5049183;28;7002;-61
2023/12/15 07:23:08;;;;;;;;;;;;;;;25.75;35.31;95740.03;5049916;28;8497;-61
2023/12/15 07:25:39;;;;;;;;;;;;;;;25.76;35.33;95738.03;5050181;28;7251;-61
2023/12/15 07:28:07;;;;;;;;;;;;;;;25.76;35.17;95743.53;5042552;28;9068;-61
2023/12/15 07:30:35;;;;;;;;;;;;;;;25.75;34.73;95737.28;5046579;28;7223;-61
2023/12/15 07:33:01;;;;;;;;;;;;;;;25.77;34.74;95736.81;5050528;28;7195;-61
2023/12/15 07:35:26;;;;;;;;;;;;;;;25.77;34.98;95745.06;5050544;28;7183;-61
2023/12/15 07:37:55;;;;;;;;;;;;;;;25.77;35.45;95747.84;5047416;28;9118;-61
2023/12/15 07:40:22;;;;;;;;;;;;;;;25.76;35.50;95747.06;5061015;28;7282;-61
2023/12/15 07:42:48;;;;;;;;;;;;;;;25.75;35.39;95751.06;5063584;28;6907;-62
2023/12/15 07:45:16;;;;;;;;;;;;;;;25.75;35.77;95759.31;5049189;28;9469;-61
2023/12/15 07:47:42;;;;;;;;;;;;;;;25.71;35.43;95761.50;5045552;28;7165;-61
2023/12/15 07:50:08;;;;;;;;;;;;;;;25.72;34.72;95762.28;5061975;28;7068;-62
2023/12/15 07:52:35;;;;;;;;;;;;;;;25.73;35.58;95764.56;5048231;28;9140;-61
2023/12/15 07:55:05;;;;;;;;;;;;;;;25.74;35.92;95765.31;5044288;28;9649;-61
2023/12/15 07:57:33;;;;;;;;;;;;;;;25.77;35.82;95765.13;5035583;28;9530;-61
2023/12/15 07:59:59;;;;;;;;;;;;;;;25.78;36.07;95779.66;5049288;28;7330;-62
2023/12/15 08:02:25;;;;;;;;;;;;;;;25.80;35.25;95771.66;5053876;28;8942;-61
2023/12/15 08:04:53;;;;;;;;;;;;;;;25.79;36.11;95778.44;5051886;28;9050;-60
2023/12/15 08:07:21;;;;;;;;;;;;;;;25.78;35.11;95777.66;5074980;28;8957;-63
2023/12/15 08:09:59;;;;;;;;;;;;;;;25.77;35.68;95783.66;5057831;28;7164;-63
2023/12/15 08:12:26;;;;;;;;;;;;;;;25.78;35.81;95794.19;5078443;28;7535;-63
2023/12/15 08:14:55;;;;;;;;;;;;;;;25.77;36.03;95798.22;5051579;28;7101;-63
2023/12/15 08:17:30;;;;;;;;;;;;;;;25.77;36.01;95795.44;5049437;28;7161;-63
2023/12/15 08:19:57;;;;;;;;;;;;;;;25.76;35.58;95802.19;5064755;28;7424;-62
2023/12/15 08:22:27;;;;;;;;;;;;;;;25.77;35.61;95800.97;5042869;28;7294;-63
2023/12/15 08:25:00;;;;;;;;;;;;;;;25.79;35.49;95798.50;5060156;28;7242;-62
2023/12/15 08:27:26;;;;;;;;;;;;;;;25.77;35.80;95800.97;5059933;28;6998;-62
2023/12/15 08:29:59;;;;;;;;;;;;;;;25.80;36.26;95800.00;5054843;28;7179;-62
2023/12/15 08:32:26;;;;;;;;;;;;;;;25.78;36.16;95802.47;5056278;28;9394;-63
2023/12/15 08:34:52;;;;;;;;;;;;;;;25.75;36.31;95799.91;5046834;28;7378;-62
2023/12/15 08:37:20;;;;;;;;;;;;;;;25.76;36.76;95796.69;5054089;28;7236;-62
2023/12/15 08:39:46;;;;;;;;;;;;;;;25.78;35.50;95794.19;5071043;28;9189;-62
2023/12/15 08:42:12;;;;;;;;;;;;;;;25.77;36.43;95795.44;5052534;28;7415;-63
2023/12/15 08:44:44;;;;;;;;;;;;;;;25.79;36.06;95798.50;5075416;28;9178;-63
2023/12/15 08:47:12;;;;;;;;;;;;;;;25.75;36.18;95806.16;5060530;28;8065;-63
2023/12/15 08:49:51;;;;;;;;;;;;;;;25.74;36.18;95804.66;5066023;28;7423;-63
2023/12/15 08:52:27;;;;;;;;;;;;;;;25.74;36.00;95799.16;5075150;28;7353;-63
2023/12/15 08:54:53;;;;;;;;;;;;;;;25.75;35.75;95794.41;5050517;28;7507;-63
2023/12/15 08:57:38;;;;;;;;;;;;;;;25.74;35.89;95799.16;5047938;28;7255;-63
2023/12/15 09:00:21;;;;;;;;;;;;;;;25.73;34.66;95797.63;5072460;28;7207;-63
2023/12/15 09:02:50;;;;;;;;;;;;;;;25.72;35.22;95806.38;5053437;28;7087;-62
2023/12/15 09:05:24;;;;;;;;;;;;;;;25.69;35.17;95805.31;5051474;28;9357;-64
2023/12/15 09:07:56;;;;;;;;;;;;;;;25.69;34.72;95805.31;5057579;28;7129;-62
2023/12/15 09:10:22;;;;;;;;;;;;;;;25.68;34.33;95817.59;5064423;28;9368;-63
2023/12/15 09:12:51;;;;;;;;;;;;;;;25.67;34.53;95816.06;5044403;28;7142;-63
2023/12/15 09:15:22;;;;;;;;;;;;;;;25.66;34.48;95817.31;5070345;28;7185;-58
2023/12/15 09:17:50;;;;;;;;;;;;;;;25.67;34.55;95816.06;5049059;28;9134;-65
2023/12/15 09:20:20;;;;;;;;;;;;;;;25.64;34.05;95816.28;5060428;28;9220;-66
2023/12/15 09:22:47;;;;;;;;;;;;;;;25.65;33.90;95826.81;5063158;28;8701;-65
2023/12/15 09:26:04;;;;;;;;;;;;;;;25.66;33.41;95833.09;5055705;28;9313;-65
2023/12/15 09:28:39;;;;;;;;;;;;;;;25.66;33.69;95838.59;5008043;28;7267;-65
2023/12/15 09:31:06;;;;;;;;;;;;;;;25.66;33.43;95835.84;4991688;28;7007;-65
2023/12/15 09:33:33;;;;;;;;;;;;;;;25.68;33.61;95842.41;5007561;28;9184;-65
2023/12/15 09:36:00;;;;;;;;;;;;;;;25.68;34.14;95842.41;4998799;28;7341;-65
2023/12/15 09:38:26;;;;;;;;;;;;;;;25.66;33.46;95839.38;4995379;28;7068;-65
2023/12/15 09:41:29;;;;;;;;;;;;;;;25.68;33.71;95847.91;4988391;28;7006;-65
2023/12/15 09:43:55;;;;;;;;;;;;;;;25.65;33.69;95840.59;4944958;28;7104;-65
2023/12/15 09:46:46;;;;;;;;;;;;;;;25.67;34.18;95848.38;4945319;28;9641;-65
2023/12/15 09:49:46;;;;;;;;;;;;;;;25.66;32.91;95855.91;4947182;28;7195;-65
2023/12/15 09:52:30;;;;;;;;;;;;;;;25.62;33.65;95841.53;4874987;29;7348;-65
2023/12/15 09:55:10;;;;;;;;;;;;;;;25.64;33.93;95847.34;4872336;29;9077;-66
2023/12/15 09:57:46;;;;;;;;;;;;;;;25.62;33.35;95849.78;4866657;29;8862;-66
2023/12/15 10:00:23;;;;;;;;;;;;;;;25.62;32.74;95860.81;4872755;29;7383;-65
2023/12/15 10:02:49;;;;;;;;;;;;;;;25.60;32.99;95860.53;4872759;29;8226;-66
2023/12/15 10:05:16;;;;;;;;;;;;;;;25.74;31.96;95857.03;4882050;29;7042;-66
2023/12/15 10:07:42;;;;;;;;;;;;;;;25.86;32.64;95860.72;4895509;29;7260;-66
2023/12/15 10:10:11;;;;;;;;;;;;;;;25.88;32.00;95856.22;4911660;29;6990;-66
2023/12/15 10:12:50;;;;;;;;;;;;;;;25.95;32.40;95855.84;4894384;29;7268;-66
2023/12/15 10:15:49;;;;;;;;;;;;;;;25.95;31.39;95847.59;4915468;29;9107;-66
2023/12/15 10:18:16;;;;;;;;;;;;;;;25.92;31.93;95854.06;4838771;29;7150;-66
2023/12/15 10:20:43;;;;;;;;;;;;;;;25.87;31.56;95853.97;4889505;29;7077;-66
2023/12/15 10:23:26;;;;;;;;;;;;;;;25.80;31.27;95846.84;4896641;29;7505;-66
2023/12/15 10:25:53;;;;;;;;;;;;;;;25.83;31.41;95845.91;4888692;29;8865;-67
2023/12/15 10:28:23;;;;;;;;;;;;;;;25.90;32.27;95844.75;4925060;28;7282;-66
2023/12/15 10:31:25;;;;;;;;;;;;;;;25.93;31.87;95833.50;4958103;28;9484;-66
2023/12/15 10:34:00;;;;;;;;;;;;;;;25.93;32.05;95821.72;4971994;28;7357;-66
2023/12/15 10:36:44;;;;;;;;;;;;;;;25.93;31.91;95827.25;4970126;28;7271;-66
2023/12/15 10:39:24;;;;;;;;;;;;;;;25.89;32.16;95821.16;4955723;28;7281;-66
2023/12/15 10:42:03;;;;;;;;;;;;;;;25.87;32.26;95820.88;4954457;28;7187;-67
2023/12/15 10:44:47;;;;;;;;;;;;;;;25.82;32.78;95816.03;4968217;28;9037;-67
2023/12/15 10:47:31;;;;;;;;;;;;;;;25.85;32.63;95818.63;4949593;28;9145;-68
2023/12/15 10:50:55;;;;;;;;;;;;;;;25.83;33.12;95817.56;4960178;28;7892;-67
2023/12/15 10:53:56;;;;;;;;;;;;;;;25.80;33.21;95813.78;4952810;28;6955;-67
2023/12/15 10:56:34;;;;;;;;;;;;;;;25.79;33.46;95817.78;4978751;28;7724;-67
2023/12/15 10:59:20;;;;;;;;;;;;;;;25.81;33.07;95814.53;4985573;28;8775;-67
2023/12/15 11:01:48;;;;;;;;;;;;;;;25.83;32.87;95815.59;4982429;28;9422;-68
2023/12/15 11:04:46;;;;;;;;;;;;;;;25.85;33.68;95821.38;4968218;28;6964;-67
2023/12/15 11:07:29;;;;;;;;;;;;;;;25.87;33.15;95818.91;4935671;28;7465;-67
2023/12/15 11:10:00;;;;;;;;;;;;;;;25.87;33.31;95818.91;4967834;28;7087;-67
2023/12/15 11:12:36;;;;;;;;;;;;;;;25.88;33.19;95822.41;4961433;28;7421;-67
2023/12/15 11:15:20;;;;;;;;;;;;;;;25.86;33.18;95833.16;4948092;28;7267;-66
2023/12/15 11:17:49;;;;;;;;;;;;;;;25.87;33.56;95835.44;4960987;28;7006;-66
2023/12/15 11:20:25;;;;;;;;;;;;;;;25.87;33.56;95838.19;4962345;28;9021;-66
2023/12/15 11:23:11;;;;;;;;;;;;;;;25.88;33.73;95842.44;4967146;28;7289;-66
2023/12/15 11:26:00;;;;;;;;;;;;;;;25.90;33.72;95836.47;4964811;28;9481;-67
2023/12/15 11:28:27;;;;;;;;;;;;;;;25.93;33.84;95836.28;4948886;28;6865;-66
2023/12/15 11:31:21;;;;;;;;;;;;;;;25.95;33.52;95831.03;4954489;28;8722;-67
2023/12/15 11:33:58;;;;;;;;;;;;;;;25.94;34.53;95837.81;4965778;28;7138;-66
2023/12/15 11:36:27;;;;;;;;;;;;;;;25.97;33.81;95841.56;4981066;28;7222;-57
2023/12/15 11:39:13;;;;;;;;;;;;;;;25.95;34.02;95844.06;4985812;28;9120;-57
2023/12/15 11:42:00;;;;;;;;;;;;;;;25.92;34.25;95847.78;4969113;28;7190;-57
2023/12/15 11:44:32;;;;;;;;;;;;;;;25.93;34.39;95858.31;5060224;28;7328;-57
2023/12/15 11:47:06;;;;;;;;;;;;;;;25.98;35.01;95862.41;5053057;28;7498;-57
2023/12/15 11:49:32;;;;;;;;;;;;;;;26.01;34.54;95864.97;5052929;28;9185;-57
2023/12/15 11:52:13;;;;;;;;;;;;;;;26.06;34.95;95860.78;5054449;28;7145;-57
2023/12/15 11:54:56;;;;;;;;;;;;;;;26.08;34.73;95855.53;5051906;28;8992;-56
2023/12/15 11:57:26;;;;;;;;;;;;;;;26.10;34.83;95851.09;5048836;28;7176;-57
2023/12/15 12:00:03;;;;;;;;;;;;;;;26.13;34.28;95852.91;5053816;28;7571;-57
2023/12/15 12:02:46;;;;;;;;;;;;;;;26.17;34.88;95850.69;5057145;28;7232;-58
2023/12/15 12:05:30;;;;;;;;;;;;;;;26.19;34.39;95850.22;5056480;28;7076;-57
2023/12/15 12:08:07;;;;;;;;;;;;;;;26.16;34.80;95851.94;5060786;28;7346;-57
2023/12/15 12:10:42;;;;;;;;;;;;;;;26.21;34.99;95866.31;5054191;28;9199;-57
2023/12/15 12:13:18;;;;;;;;;;;;;;;26.21;35.13;95869.06;5054996;28;9053;-57
2023/12/15 12:15:53;;;;;;;;;;;;;;;26.16;34.88;95854.69;5047428;28;7456;-57
2023/12/15 12:18:31;;;;;;;;;;;;;;;26.15;34.73;95864.22;5066856;28;7155;-57
2023/12/15 12:21:35;;;;;;;;;;;;;;;26.18;35.42;95873.53;5048416;28;7319;-57
2023/12/15 12:24:15;;;;;;;;;;;;;;;26.15;35.41;95866.97;5000395;28;7058;-57
2023/12/15 12:26:43;;;;;;;;;;;;;;;26.12;35.11;95872.69;4988783;28;9088;-57
2023/12/15 12:29:11;;;;;;;;;;;;;;;26.12;34.93;95878.22;4973345;28;9151;-57
2023/12/15 12:31:57;;;;;;;;;;;;;;;26.15;35.81;95885.50;4985542;28;7156;-57
2023/12/15 12:34:39;;;;;;;;;;;;;;;26.15;35.45;95877.22;4978825;28;8783;-57
2023/12/15 12:37:25;;;;;;;;;;;;;;;26.15;35.83;95883.50;4989092;28;7172;-57
2023/12/15 12:39:51;;;;;;;;;;;;;;;26.08;35.51;95883.91;4977244;28;7228;-57
2023/12/15 12:42:19;;;;;;;;;;;;;;;26.12;35.66;95887.22;4980221;28;7489;-57
2023/12/15 12:44:54;;;;;;;;;;;;;;;26.12;35.71;95884.47;4997220;28;6997;-58
2023/12/15 12:47:23;;;;;;;;;;;;;;;26.12;35.88;95886.47;4981247;28;9126;-63
2023/12/15 12:49:59;;;;;;;;;;;;;;;26.12;35.66;95889.97;4995057;28;7513;-62
2023/12/15 12:52:25;;;;;;;;;;;;;;;26.10;36.04;95886.94;4988934;28;9009;-62
2023/12/15 12:55:05;;;;;;;;;;;;;;;26.11;35.73;95894.00;4994632;28;7154;-63
2023/12/15 12:57:39;;;;;;;;;;;;;;;26.13;36.16;95897.03;5010596;28;7507;-62
2023/12/15 13:00:36;;;;;;;;;;;;;;;26.16;36.31;95889.78;5048180;28;7867;-62
2023/12/15 13:03:04;;;;;;;;;;;;;;;26.15;36.35;95888.25;4984635;28;7898;-62
2023/12/15 13:05:30;;;;;;;;;;;;;;;26.07;36.06;95885.13;4984918;28;7757;-62
2023/12/15 13:07:56;;;;;;;;;;;;;;;26.02;33.73;95885.78;4989089;28;7167;-62
2023/12/15 13:10:22;;;;;;;;;;;;;;;25.94;31.83;95901.22;4985140;28;9118;-63
2023/12/15 13:12:55;;;;;;;;;;;;;;;25.86;31.58;95900.06;4976036;28;9254;-63
2023/12/15 13:15:23;;;;;;;;;;;;;;;25.81;31.51;95898.00;4991268;28;7299;-62
2023/12/15 13:17:53;;;;;;;;;;;;;;;25.78;30.41;95898.94;4972643;28;7108;-62
2023/12/15 13:20:22;;;;;;;;;;;;;;;25.80;31.19;95901.19;4975431;28;9305;-62
2023/12/15 13:23:17;;;;;;;;;;;;;;;25.82;30.13;95905.00;4987532;28;7046;-62
2023/12/15 13:25:56;;;;;;;;;;;;;;;25.85;31.48;95906.81;4933463;28;7130;-62
2023/12/15 13:28:35;;;;;;;;;;;;;;;25.86;30.21;95899.31;4934987;28;9362;-62
2023/12/15 13:31:04;;;;;;;;;;;;;;;25.89;31.31;95898.34;4936718;28;7082;-62
2023/12/15 13:33:56;;;;;;;;;;;;;;;25.90;31.90;95897.88;4945163;28;6928;-63